Time;durP1;ratioP1;P1;durP2;ratioP2;P2;SDS_P1;SDS_P2;PMS_P1;PMS_P2;Temp;Humidity;BMP_temperature;BMP_pressure;BME280_temperature;BME280_humidity;BME280_pressure;Samples;Min_cycle;Max_cycle;Signal;HPM_P1;HPM_P2
2022/06/03 00:05:06;;;;;;;;;;;23.40;39.90;;;;;;21255239;27;20413;-63
2022/06/03 00:15:17;;;;;;;;;;;23.30;40.00;;;;;;21254971;27;19923;-61
2022/06/03 00:25:29;;;;;;;;;;;23.30;40.10;;;;;;21253638;27;19930;-61
2022/06/03 00:35:45;;;;;;;;;;;23.30;39.90;;;;;;21254268;27;19974;-61
2022/06/03 00:46:13;;;;;;;;;;;23.30;39.60;;;;;;21251859;27;20022;-63
2022/06/03 00:56:26;;;;;;;;;;;23.30;39.70;;;;;;21250819;27;20007;-61
2022/06/03 01:06:34;;;;;;;;;;;23.20;39.90;;;;;;21231962;27;19923;-61
2022/06/03 01:16:54;;;;;;;;;;;23.20;40.10;;;;;;21249733;27;19930;-62
2022/06/03 01:26:56;;;;;;;;;;;23.00;40.80;;;;;;21248950;27;19975;-61
2022/06/03 01:37:06;;;;;;;;;;;22.90;41.50;;;;;;21249219;27;19930;-61
2022/06/03 01:47:29;;;;;;;;;;;22.70;42.00;;;;;;21248068;28;19931;-62
2022/06/03 01:57:43;;;;;;;;;;;22.50;43.00;;;;;;21260732;27;20282;-62
2022/06/03 02:07:51;;;;;;;;;;;;;;;;;;21265808;27;20434;-61
2022/06/03 02:17:57;;;;;;;;;;;;;;;;;;21246974;27;19927;-62
2022/06/03 02:28:02;;;;;;;;;;;;;;;;;;21263224;27;20026;-61
2022/06/03 02:38:06;;;;;;;;;;;;;;;;;;21262472;27;20288;-61
2022/06/03 02:48:19;;;;;;;;;;;;;;;;;;21263274;27;20367;-60
2022/06/03 02:58:46;;;;;;;;;;;22.80;41.50;;;;;;21261398;27;19924;-61
2022/06/03 03:09:15;;;;;;;;;;;22.40;42.30;;;;;;21259620;27;19927;-61
2022/06/03 03:19:36;;;;;;;;;;;22.30;42.50;;;;;;21258787;27;19923;-61
2022/06/03 03:29:57;;;;;;;;;;;21.50;43.90;;;;;;21258244;27;19927;-60
2022/06/03 03:40:26;;;;;;;;;;;21.40;44.40;;;;;;21258679;27;19930;-60
2022/06/03 03:50:51;;;;;;;;;;;21.30;44.80;;;;;;21257004;27;19934;-60
2022/06/03 04:01:09;;;;;;;;;;;21.20;45.40;;;;;;21260060;27;19930;-60
2022/06/03 04:11:31;;;;;;;;;;;21.10;45.20;;;;;;21256060;27;19924;-59
2022/06/03 04:21:41;;;;;;;;;;;21.30;44.70;;;;;;21254283;27;20291;-62
2022/06/03 04:31:59;;;;;;;;;;;21.10;46.10;;;;;;21254086;27;20436;-60
2022/06/03 04:42:24;;;;;;;;;;;20.90;46.50;;;;;;21252081;27;20020;-62
2022/06/03 04:52:29;;;;;;;;;;;20.90;46.00;;;;;;21251048;27;19923;-60
2022/06/03 05:02:50;;;;;;;;;;;20.90;45.90;;;;;;21231993;27;19924;-60
2022/06/03 05:13:23;;;;;;;;;;;20.90;45.60;;;;;;21250025;27;20375;-62
2022/06/03 05:23:45;;;;;;;;;;;20.90;45.70;;;;;;21249107;27;19951;-60
2022/06/03 05:33:47;;;;;;;;;;;20.80;45.80;;;;;;21248427;27;19931;-60
2022/06/03 05:44:04;;;;;;;;;;;21.10;45.30;;;;;;21249221;27;20404;-60
2022/06/03 05:54:07;;;;;;;;;;;21.60;44.30;;;;;;21247961;28;19930;-61
2022/06/03 06:04:15;;;;;;;;;;;20.70;46.70;;;;;;21247528;28;20015;-60
2022/06/03 06:14:20;;;;;;;;;;;20.60;46.70;;;;;;21247246;28;20359;-62
2022/06/03 06:24:34;;;;;;;;;;;20.60;47.00;;;;;;21246919;28;19923;-60
2022/06/03 06:34:55;;;;;;;;;;;20.70;47.00;;;;;;21246344;28;19929;-63
2022/06/03 06:45:16;;;;;;;;;;;22.30;44.60;;;;;;21259672;27;19927;-60
2022/06/03 06:55:37;;;;;;;;;;;22.10;44.80;;;;;;21260656;27;19923;-60
2022/06/03 07:05:44;;;;;;;;;;;21.30;47.20;;;;;;21261135;27;20294;-61
2022/06/03 07:15:51;;;;;;;;;;;21.90;46.80;;;;;;21259468;27;19927;-61
2022/06/03 07:25:59;;;;;;;;;;;22.50;45.60;;;;;;21258127;27;19963;-60
2022/06/03 07:36:01;;;;;;;;;;;;;;;;;;21258120;27;19993;-62
2022/06/03 07:46:09;;;;;;;;;;;23.10;45.00;;;;;;21258416;27;20001;-60
2022/06/03 07:56:18;;;;;;;;;;;23.60;44.70;;;;;;21255793;27;19923;-59
2022/06/03 08:10:56;;;;;;;;;;;24.40;43.00;;;;;;21254877;27;19924;-60
2022/06/03 08:16:51;;;;;;;;;;;25.20;41.80;;;;;;21254215;27;19930;-62
2022/06/03 08:26:53;;;;;;;;;;;;;;;;;;21254612;27;19923;-60
2022/06/03 08:36:55;;;;;;;;;;;25.80;40.90;;;;;;21254098;27;19954;-68
2022/06/03 08:47:06;;;;;;;;;;;26.00;40.30;;;;;;21236528;27;19952;-70
2022/06/03 08:57:11;;;;;;;;;;;26.10;39.60;;;;;;21252923;27;20336;-67
2022/06/03 09:07:29;;;;;;;;;;;26.40;39.70;;;;;;21252085;27;19930;-72
2022/06/03 09:17:33;;;;;;;;;;;26.30;39.60;;;;;;21249298;27;20014;-63
2022/06/03 09:27:37;;;;;;;;;;;;;;;;;;21251082;27;20279;-72
2022/06/03 09:37:41;;;;;;;;;;;26.50;39.30;;;;;;21253425;27;19945;-67
2022/06/03 09:47:44;;;;;;;;;;;26.70;39.00;;;;;;21243271;27;19923;-76
2022/06/03 09:57:46;;;;;;;;;;;26.90;38.50;;;;;;21256888;28;20020;-69
2022/06/03 10:07:51;;;;;;;;;;;27.10;38.00;;;;;;21263371;28;19927;-77
2022/06/03 10:17:54;;;;;;;;;;;27.10;37.60;;;;;;21261148;27;19977;-73
2022/06/03 10:28:01;;;;;;;;;;;27.20;37.10;;;;;;21261834;27;19946;-63
2022/06/03 10:38:03;;;;;;;;;;;26.70;37.50;;;;;;21263345;27;20306;-73
2022/06/03 10:48:18;;;;;;;;;;;26.80;37.40;;;;;;21273149;27;19930;-68
2022/06/03 11:08:40;;;;;;;;;;;;;;;;;;21256461;27;19923;-59
2022/06/03 11:18:43;;;;;;;;;;;;;;;;;;21247633;27;19923;-60
2022/06/03 11:28:47;;;;;;;;;;;;;;;;;;21256251;27;19930;-58
2022/06/03 11:38:49;;;;;;;;;;;;;;;;;;21257299;27;20281;-62
2022/06/03 11:48:52;;;;;;;;;;;28.30;33.00;;;;;;21255681;27;20431;-60
2022/06/03 11:59:01;;;;;;;;;;;27.20;33.60;;;;;;21255280;27;19923;-59
2022/06/03 12:09:29;;;;;;;;;;;27.40;32.00;;;;;;21253797;27;19975;-59
2022/06/03 12:19:35;;;;;;;;;;;27.70;32.00;;;;;;21074581;28;19969;-61
2022/06/03 12:29:41;;;;;;;;;;;27.60;32.40;;;;;;21073167;28;19928;-60
2022/06/03 12:40:00;;;;;;;;;;;27.40;32.60;;;;;;21072750;28;19928;-61
2022/06/03 12:50:04;;;;;;;;;;;27.80;31.70;;;;;;21117253;27;20013;-62
2022/06/03 13:00:11;;;;;;;;;;;27.90;31.30;;;;;;21250310;27;19924;-61
2022/06/03 13:10:18;;;;;;;;;;;27.70;31.50;;;;;;21265236;27;19923;-59
2022/06/03 13:20:37;;;;;;;;;;;28.00;31.00;;;;;;21249024;27;20008;-60
2022/06/03 13:30:40;;;;;;;;;;;28.30;31.00;;;;;;21248554;27;19971;-59
2022/06/03 13:42:57;;;;;;;;;;;28.40;30.60;;;;;;21247881;27;19930;-61
2022/06/03 13:51:24;;;;;;;;;;;28.30;31.20;;;;;;21247080;27;19930;-59
2022/06/03 14:01:25;;;;;;;;;;;28.40;30.50;;;;;;21228145;28;19963;-62
2022/06/03 14:11:27;;;;;;;;;;;28.40;29.60;;;;;;21246430;28;19934;-60
2022/06/03 14:21:31;;;;;;;;;;;;;;;;;;21245488;28;20054;-61
2022/06/03 14:31:46;;;;;;;;;;;29.60;28.80;;;;;;21245164;28;19980;-59
2022/06/03 14:41:51;;;;;;;;;;;28.40;29.90;;;;;;21245454;28;19924;-59
2022/06/03 14:51:59;;;;;;;;;;;27.90;30.90;;;;;;21247103;28;20220;-60
2022/06/03 15:02:18;;;;;;;;;;;28.50;29.70;;;;;;21256762;27;19923;-59
2022/06/03 15:12:22;;;;;;;;;;;28.60;29.20;;;;;;21261848;27;20336;-59
2022/06/03 15:22:33;;;;;;;;;;;28.30;29.30;;;;;;21259785;27;19977;-63
2022/06/03 15:32:37;;;;;;;;;;;28.20;31.30;;;;;;21260854;27;19923;-65
2022/06/03 15:42:38;;;;;;;;;;;27.90;30.30;;;;;;21255886;27;19939;-60
2022/06/03 15:52:41;;;;;;;;;;;27.70;30.70;;;;;;21254920;27;19923;-62
2022/06/03 16:02:52;;;;;;;;;;;27.70;30.60;;;;;;21253451;27;20298;-62
2022/06/03 16:13:17;;;;;;;;;;;27.70;30.20;;;;;;21253568;27;19946;-65
2022/06/03 16:23:36;;;;;;;;;;;27.80;29.80;;;;;;21252873;27;19927;-67
2022/06/03 16:33:42;;;;;;;;;;;27.90;29.70;;;;;;21253821;27;20243;-71
2022/06/03 16:43:50;;;;;;;;;;;27.90;29.60;;;;;;21252248;27;19927;-62
2022/06/03 16:53:55;;;;;;;;;;;27.80;29.70;;;;;;21251827;27;21321;-63
2022/06/03 17:03:57;;;;;;;;;;;27.70;29.50;;;;;;21253408;27;20382;-73
2022/06/03 17:14:06;;;;;;;;;;;27.70;29.80;;;;;;21233106;27;19967;-76
2022/06/03 17:24:31;;;;;;;;;;;27.70;29.80;;;;;;21250935;27;19927;-63
2022/06/03 17:34:56;;;;;;;;;;;27.60;30.10;;;;;;21252895;27;19927;-71
2022/06/03 17:45:16;;;;;;;;;;;27.50;30.30;;;;;;21236340;27;19931;-67
2022/06/03 17:55:30;;;;;;;;;;;27.60;29.90;;;;;;21248742;28;19935;-66
2022/06/03 18:05:32;;;;;;;;;;;27.50;30.20;;;;;;21248762;28;20408;-69
2022/06/03 18:15:35;;;;;;;;;;;27.30;29.90;;;;;;21248103;28;19930;-65
2022/06/03 18:25:43;;;;;;;;;;;27.30;30.10;;;;;;21247763;28;19930;-64
2022/06/03 18:35:46;;;;;;;;;;;27.20;30.70;;;;;;21252223;27;19924;-61
2022/06/03 18:45:51;;;;;;;;;;;27.00;30.50;;;;;;21260726;27;19927;-67
2022/06/03 18:56:08;;;;;;;;;;;26.90;30.50;;;;;;21260197;27;19924;-68
2022/06/03 19:06:19;;;;;;;;;;;26.60;30.80;;;;;;21260998;27;20324;-69
2022/06/03 19:16:29;;;;;;;;;;;26.40;31.00;;;;;;21259512;27;19923;-69
2022/06/03 19:26:38;;;;;;;;;;;26.30;31.50;;;;;;21259945;27;19924;-62
2022/06/03 19:36:39;;;;;;;;;;;26.00;32.10;;;;;;21257140;27;19923;-61
2022/06/03 19:46:47;;;;;;;;;;;25.70;32.40;;;;;;21254331;27;19931;-64
2022/06/03 19:56:56;;;;;;;;;;;25.50;32.80;;;;;;21237222;27;19973;-68
2022/06/03 20:07:13;;;;;;;;;;;25.30;33.00;;;;;;21256860;27;19931;-66
2022/06/03 20:17:17;;;;;;;;;;;25.20;33.40;;;;;;21256119;27;20048;-63
2022/06/03 20:27:23;;;;;;;;;;;25.00;33.80;;;;;;21255838;27;20394;-62
2022/06/03 20:37:43;;;;;;;;;;;24.70;34.20;;;;;;21256695;27;20010;-61
2022/06/03 20:48:04;;;;;;;;;;;24.60;34.50;;;;;;21252757;27;19930;-65
2022/06/03 20:58:17;;;;;;;;;;;24.50;35.00;;;;;;21251874;27;20267;-60
2022/06/03 21:18:46;;;;;;;;;;;24.10;36.00;;;;;;21251886;27;19976;-63
2022/06/03 21:28:48;;;;;;;;;;;24.00;36.40;;;;;;21251797;27;20294;-69
2022/06/03 21:38:56;;;;;;;;;;;23.90;36.30;;;;;;21250295;27;20008;-64
2022/06/03 21:49:12;;;;;;;;;;;23.80;36.60;;;;;;21248863;27;19923;-68
2022/06/03 21:59:36;;;;;;;;;;;23.70;37.00;;;;;;21247438;28;20012;-68
2022/06/03 22:09:38;;;;;;;;;;;23.60;37.00;;;;;;21253251;27;20600;-65
2022/06/03 22:19:40;;;;;;;;;;;23.40;37.50;;;;;;21265235;27;20255;-66
2022/06/03 22:29:50;;;;;;;;;;;23.10;38.10;;;;;;21264645;27;19983;-62
2022/06/03 22:39:54;;;;;;;;;;;22.80;38.50;;;;;;21262963;27;19962;-62
2022/06/03 22:49:55;;;;;;;;;;;22.70;38.70;;;;;;21261912;27;19970;-63
2022/06/03 22:59:57;;;;;;;;;;;22.70;38.90;;;;;;21261853;27;19923;-61
2022/06/03 23:09:58;;;;;;;;;;;22.60;39.10;;;;;;21261367;27;19961;-67
2022/06/03 23:20:00;;;;;;;;;;;22.50;39.30;;;;;;21260053;27;19931;-67
2022/06/03 23:30:02;;;;;;;;;;;;;;;;;;21259912;27;19930;-63
2022/06/03 23:40:04;;;;;;;;;;;22.40;39.80;;;;;;21258280;27;19942;-67
2022/06/03 23:50:06;;;;;;;;;;;22.30;39.90;;;;;;21258801;27;20302;-62
